createdAt,value
2017-11-26T00:00:22.131Z,7.10
2017-11-26T00:02:50.420Z,7.10
2017-11-26T00:05:18.681Z,7.10
2017-11-26T00:07:46.954Z,7.10
2017-11-26T00:10:15.257Z,7.00
2017-11-26T00:12:42.780Z,7.00
2017-11-26T00:15:10.311Z,7.00
2017-11-26T00:17:37.811Z,7.00
2017-11-26T00:20:06.101Z,7.00
2017-11-26T00:22:34.369Z,6.90
2017-11-26T00:25:01.896Z,6.90
2017-11-26T00:27:29.397Z,6.90
2017-11-26T00:29:57.689Z,6.80
2017-11-26T00:32:25.190Z,6.80
2017-11-26T00:34:52.736Z,6.80
2017-11-26T00:37:20.249Z,6.80
2017-11-26T00:39:48.516Z,6.70
2017-11-26T00:42:16.804Z,6.70
2017-11-26T00:44:45.068Z,6.60
2017-11-26T00:47:13.362Z,6.60
2017-11-26T00:49:40.860Z,6.60
2017-11-26T00:52:08.385Z,6.60
2017-11-26T00:54:35.870Z,6.50
2017-11-26T00:57:03.389Z,6.50
2017-11-26T00:59:31.648Z,6.40
2017-11-26T01:01:59.163Z,6.40
2017-11-26T01:04:26.661Z,6.40
2017-11-26T01:06:54.969Z,6.40
2017-11-26T01:09:22.476Z,6.40
2017-11-26T01:11:50.017Z,6.40
2017-11-26T01:14:17.521Z,6.30
2017-11-26T01:16:45.016Z,6.30
2017-11-26T01:19:12.539Z,6.30
2017-11-26T01:21:40.810Z,6.20
2017-11-26T01:24:08.327Z,6.20
2017-11-26T01:26:35.829Z,6.20
2017-11-26T01:29:03.348Z,6.20
2017-11-26T01:31:30.849Z,6.10
2017-11-26T01:33:58.371Z,6.10
2017-11-26T01:36:25.875Z,6.10
2017-11-26T01:38:54.159Z,6.00
2017-11-26T01:41:22.437Z,6.00
2017-11-26T01:43:49.952Z,5.90
2017-11-26T01:46:17.452Z,5.90
2017-11-26T01:48:44.992Z,5.90
2017-11-26T01:51:12.506Z,5.90
2017-11-26T01:53:40.024Z,5.90
2017-11-26T01:56:08.284Z,5.80
2017-11-26T01:58:35.832Z,5.80
2017-11-26T02:01:03.371Z,5.80
2017-11-26T02:03:30.858Z,5.80
2017-11-26T02:05:58.367Z,5.70
2017-11-26T02:08:25.867Z,5.70
2017-11-26T02:10:53.384Z,5.70
2017-11-26T02:13:20.883Z,5.70
2017-11-26T02:15:48.425Z,5.70
2017-11-26T02:18:15.919Z,5.70
2017-11-26T02:20:43.432Z,5.70
2017-11-26T02:23:10.928Z,5.70
2017-11-26T02:25:38.454Z,5.70
2017-11-26T02:28:05.952Z,5.70
2017-11-26T02:30:33.481Z,5.70
2017-11-26T02:33:12.788Z,5.70
2017-11-26T02:35:40.308Z,5.70
2017-11-26T02:38:07.804Z,5.70
2017-11-26T02:40:35.319Z,5.70
2017-11-26T02:43:02.839Z,5.70
2017-11-26T02:45:30.375Z,5.70
2017-11-26T02:47:57.876Z,5.70
2017-11-26T02:50:25.399Z,5.70
2017-11-26T02:52:52.916Z,5.70
2017-11-26T02:55:20.419Z,5.80
2017-11-26T02:57:47.944Z,5.80
2017-11-26T03:00:15.445Z,5.80
2017-11-26T03:02:42.965Z,5.80
2017-11-26T03:05:11.236Z,5.80
2017-11-26T03:07:38.750Z,5.80
2017-11-26T03:10:06.268Z,5.80
2017-11-26T03:12:34.555Z,5.80
2017-11-26T03:15:02.819Z,5.80
2017-11-26T03:17:30.368Z,5.80
2017-11-26T03:19:57.884Z,5.80
2017-11-26T03:22:25.394Z,5.80
2017-11-26T03:24:53.680Z,5.80
2017-11-26T03:27:21.950Z,5.80
2017-11-26T03:29:50.258Z,5.80
2017-11-26T03:32:17.764Z,5.80
2017-11-26T03:34:45.291Z,5.90
2017-11-26T03:37:12.787Z,5.90
2017-11-26T03:39:40.308Z,5.80
2017-11-26T03:42:07.804Z,5.90
2017-11-26T03:44:35.320Z,5.90
2017-11-26T03:47:02.815Z,5.90
2017-11-26T03:49:30.329Z,5.80
2017-11-26T03:51:57.841Z,5.90
2017-11-26T03:54:25.369Z,5.90
2017-11-26T03:56:53.637Z,5.90
2017-11-26T03:59:21.144Z,5.90
2017-11-26T04:01:48.669Z,5.90
2017-11-26T04:04:16.176Z,5.80
2017-11-26T04:06:44.467Z,5.90
2017-11-26T04:09:12.047Z,5.80
2017-11-26T04:11:39.582Z,5.90
2017-11-26T04:14:07.851Z,5.80
2017-11-26T04:16:36.139Z,5.80
2017-11-26T04:19:03.640Z,5.70
2017-11-26T04:21:31.168Z,5.70
2017-11-26T04:23:58.688Z,5.70
2017-11-26T04:26:26.208Z,5.70
2017-11-26T04:28:53.716Z,5.60
2017-11-26T04:31:22.004Z,5.60
2017-11-26T04:33:49.519Z,5.60
2017-11-26T04:36:17.036Z,5.60
2017-11-26T04:38:44.540Z,5.60
2017-11-26T04:41:12.077Z,5.50
2017-11-26T04:43:39.592Z,5.50
2017-11-26T04:46:07.861Z,5.50
2017-11-26T04:48:35.384Z,5.50
2017-11-26T04:51:02.888Z,5.50
2017-11-26T04:53:31.167Z,5.40
2017-11-26T04:55:59.434Z,5.40
2017-11-26T04:58:27.751Z,5.40
2017-11-26T05:00:55.221Z,5.40
2017-11-26T05:03:22.728Z,5.40
2017-11-26T05:05:50.223Z,5.40
2017-11-26T05:08:17.748Z,5.30
2017-11-26T05:10:46.008Z,5.30
2017-11-26T05:13:13.548Z,5.30
2017-11-26T05:15:41.087Z,5.30
2017-11-26T05:18:08.587Z,5.20
2017-11-26T05:20:36.105Z,5.20
2017-11-26T05:23:03.612Z,5.20
2017-11-26T05:25:31.131Z,5.20
2017-11-26T05:27:58.648Z,5.20
2017-11-26T05:30:26.911Z,5.10
2017-11-26T05:32:54.454Z,5.20
2017-11-26T05:35:21.956Z,5.20
2017-11-26T05:37:49.479Z,5.10
2017-11-26T05:40:17.004Z,5.10
2017-11-26T05:42:44.494Z,5.10
2017-11-26T05:45:12.013Z,5.10
2017-11-26T05:47:39.524Z,5.10
2017-11-26T05:50:07.036Z,5.10
2017-11-26T05:52:34.532Z,5.10
2017-11-26T05:55:02.060Z,5.10
2017-11-26T05:57:29.587Z,5.10
2017-11-26T05:59:57.100Z,5.10
2017-11-26T06:02:24.616Z,5.10
2017-11-26T06:04:52.174Z,5.10
2017-11-26T06:07:19.659Z,5.00
2017-11-26T06:09:47.171Z,5.00
2017-11-26T06:12:15.424Z,5.00
2017-11-26T06:14:42.940Z,5.00
2017-11-26T06:17:10.460Z,5.00
2017-11-26T06:19:38.739Z,5.00
2017-11-26T06:22:07.004Z,5.00
2017-11-26T06:24:34.610Z,5.00
2017-11-26T06:27:02.896Z,5.00
2017-11-26T06:29:30.391Z,5.00
2017-11-26T06:31:57.903Z,5.00
2017-11-26T06:34:25.395Z,5.00
2017-11-26T06:36:52.920Z,5.00
2017-11-26T06:39:20.412Z,5.00
2017-11-26T06:41:47.918Z,5.00
2017-11-26T06:44:15.428Z,5.00
2017-11-26T06:46:42.943Z,5.00
2017-11-26T06:49:10.448Z,5.00
2017-11-26T06:51:37.959Z,5.00
2017-11-26T06:54:05.454Z,4.90
2017-11-26T06:56:32.970Z,4.90
2017-11-26T06:59:00.462Z,4.90
2017-11-26T07:01:27.976Z,4.90
2017-11-26T07:03:56.259Z,4.80
2017-11-26T07:06:23.818Z,4.80
2017-11-26T07:08:52.084Z,4.80
2017-11-26T07:11:20.366Z,4.70
2017-11-26T07:13:48.624Z,4.70
2017-11-26T07:16:16.125Z,4.70
2017-11-26T07:18:43.643Z,4.70
2017-11-26T07:21:11.146Z,4.70
2017-11-26T07:23:38.660Z,4.70
2017-11-26T07:26:06.940Z,4.60
2017-11-26T07:28:34.460Z,4.60
2017-11-26T07:31:01.976Z,4.60
2017-11-26T07:33:30.251Z,4.60
2017-11-26T07:35:58.512Z,4.60
2017-11-26T07:38:26.028Z,4.60
2017-11-26T07:40:53.536Z,4.60
2017-11-26T07:43:21.836Z,4.60
2017-11-26T07:45:49.331Z,4.50
2017-11-26T07:48:16.850Z,4.50
2017-11-26T07:50:44.352Z,4.60
2017-11-26T07:53:11.869Z,4.60
2017-11-26T07:55:39.407Z,4.60
2017-11-26T07:58:07.691Z,4.60
2017-11-26T08:00:35.200Z,4.60
2017-11-26T08:03:02.744Z,4.70
2017-11-26T08:05:30.239Z,4.70
2017-11-26T08:07:57.736Z,4.70
2017-11-26T08:10:26.020Z,4.70
2017-11-26T08:12:53.568Z,4.70
2017-11-26T08:15:21.847Z,4.80
2017-11-26T08:17:49.351Z,4.80
2017-11-26T08:20:16.868Z,4.90
2017-11-26T08:22:45.136Z,5.00
2017-11-26T08:25:13.431Z,5.00
2017-11-26T08:27:40.932Z,5.00
2017-11-26T08:30:08.436Z,5.00
2017-11-26T08:32:36.722Z,5.10
2017-11-26T08:35:04.223Z,5.10
2017-11-26T08:37:31.736Z,5.10
2017-11-26T08:39:59.243Z,5.10
2017-11-26T08:42:27.527Z,5.20
2017-11-26T08:44:55.037Z,5.20
2017-11-26T08:47:22.570Z,5.20
2017-11-26T08:49:50.839Z,5.30
2017-11-26T08:52:18.376Z,5.30
2017-11-26T08:54:45.883Z,5.30
2017-11-26T08:57:14.151Z,5.40
2017-11-26T08:59:42.443Z,5.40
2017-11-26T09:02:09.937Z,5.40
2017-11-26T09:04:37.461Z,5.40
2017-11-26T09:07:10.724Z,5.40
2017-11-26T09:09:38.244Z,5.50
2017-11-26T09:12:05.752Z,5.50
2017-11-26T09:14:34.052Z,5.60
2017-11-26T09:17:01.578Z,5.50
2017-11-26T09:19:29.107Z,5.60
2017-11-26T09:21:56.603Z,5.60
2017-11-26T09:24:24.893Z,5.70
2017-11-26T09:26:53.170Z,5.70
2017-11-26T09:29:21.472Z,5.70
2017-11-26T09:31:48.976Z,5.70
2017-11-26T09:34:16.587Z,5.70
2017-11-26T09:36:44.089Z,5.70
2017-11-26T09:39:11.632Z,5.80
2017-11-26T09:41:39.181Z,5.80
2017-11-26T09:44:06.684Z,5.80
2017-11-26T09:46:34.228Z,5.80
2017-11-26T09:49:01.732Z,5.80
2017-11-26T09:51:29.255Z,5.90
2017-11-26T09:53:56.751Z,6.00
2017-11-26T09:56:24.266Z,6.00
2017-11-26T09:58:51.772Z,6.10
2017-11-26T10:01:19.292Z,6.10
2017-11-26T10:03:46.789Z,6.10
2017-11-26T10:06:14.312Z,6.10
2017-11-26T10:08:41.827Z,6.10
2017-11-26T10:11:09.399Z,6.20
2017-11-26T10:13:36.896Z,6.20
2017-11-26T10:16:04.411Z,6.20
2017-11-26T10:18:31.904Z,6.30
2017-11-26T10:20:59.427Z,6.20
2017-11-26T10:23:26.924Z,6.30
2017-11-26T10:25:54.447Z,6.30
2017-11-26T10:28:21.971Z,6.30
2017-11-26T10:30:50.263Z,6.40
2017-11-26T10:33:17.768Z,6.30
2017-11-26T10:35:45.259Z,6.40
2017-11-26T10:38:13.541Z,6.40
2017-11-26T10:40:41.803Z,6.40
2017-11-26T10:43:10.088Z,6.40
2017-11-26T10:45:38.408Z,6.40
2017-11-26T10:48:05.952Z,6.40
2017-11-26T10:50:33.454Z,6.40
2017-11-26T10:53:00.961Z,6.40
2017-11-26T10:55:28.471Z,6.40
2017-11-26T10:57:55.988Z,6.40
2017-11-26T11:00:23.484Z,6.40
2017-11-26T11:02:51.011Z,6.40
2017-11-26T11:05:18.530Z,6.40
2017-11-26T11:07:46.852Z,6.50
2017-11-26T11:10:14.352Z,6.50
2017-11-26T11:12:41.851Z,6.50
2017-11-26T11:15:09.372Z,6.50
2017-11-26T11:17:36.881Z,6.60
2017-11-26T11:20:04.423Z,6.60
2017-11-26T11:22:31.935Z,6.70
2017-11-26T11:24:59.475Z,6.70
2017-11-26T11:27:27.001Z,6.80
2017-11-26T11:29:54.521Z,6.80
2017-11-26T11:32:22.033Z,6.80
2017-11-26T11:34:49.542Z,6.80
2017-11-26T11:37:17.067Z,6.80
2017-11-26T11:39:44.568Z,6.80
2017-11-26T11:42:12.864Z,6.90
2017-11-26T11:44:41.840Z,6.90
2017-11-26T11:47:10.183Z,6.90
2017-11-26T11:49:37.684Z,6.90
2017-11-26T11:52:05.945Z,6.90
2017-11-26T11:54:33.459Z,6.90
2017-11-26T11:57:00.961Z,6.90
2017-11-26T11:59:28.499Z,6.90
2017-11-26T12:01:56.000Z,6.90
2017-11-26T12:04:24.275Z,6.90
2017-11-26T12:06:52.541Z,6.90
2017-11-26T12:09:20.846Z,6.90
2017-11-26T12:11:48.376Z,6.90
2017-11-26T12:14:15.909Z,7.00
2017-11-26T12:16:43.436Z,7.00
2017-11-26T12:19:10.991Z,7.00
2017-11-26T12:21:38.517Z,7.00
2017-11-26T12:24:06.052Z,6.90
2017-11-26T12:26:33.585Z,6.90
2017-11-26T12:29:01.872Z,6.80
2017-11-26T12:31:29.380Z,6.80
2017-11-26T12:33:57.690Z,6.80
2017-11-26T12:36:25.205Z,6.80
2017-11-26T12:38:52.754Z,6.80
2017-11-26T12:41:20.253Z,6.70
2017-11-26T12:43:48.511Z,6.70
2017-11-26T12:46:16.796Z,6.60
2017-11-26T12:48:44.292Z,6.60
2017-11-26T12:51:11.807Z,6.60
2017-11-26T12:53:40.068Z,6.60
2017-11-26T12:56:07.588Z,6.60
2017-11-26T12:58:35.086Z,6.60
2017-11-26T13:01:02.611Z,6.60
2017-11-26T13:03:30.108Z,6.60
2017-11-26T13:05:57.622Z,6.60
2017-11-26T13:08:25.120Z,6.60
2017-11-26T13:10:52.656Z,6.50
2017-11-26T13:13:20.200Z,6.50
2017-11-26T13:15:47.724Z,6.50
2017-11-26T13:18:15.238Z,6.50
2017-11-26T13:20:42.760Z,6.50
2017-11-26T13:23:10.275Z,6.50
2017-11-26T13:25:37.776Z,6.50
2017-11-26T13:28:05.324Z,6.50
2017-11-26T13:30:32.832Z,6.40
2017-11-26T13:33:00.362Z,6.40
2017-11-26T13:35:27.892Z,6.40
2017-11-26T13:37:56.189Z,6.40
2017-11-26T13:40:23.697Z,6.40
2017-11-26T13:42:51.220Z,6.40
2017-11-26T13:45:18.724Z,6.40
2017-11-26T13:47:46.260Z,6.40
2017-11-26T13:50:13.769Z,6.40
2017-11-26T13:52:42.065Z,6.40
2017-11-26T13:55:09.594Z,6.30
2017-11-26T13:57:37.904Z,6.40
2017-11-26T14:00:05.429Z,6.30
2017-11-26T14:02:33.724Z,6.30
2017-11-26T14:05:02.001Z,6.30
2017-11-26T14:07:30.305Z,6.30
2017-11-26T14:09:57.820Z,6.30
2017-11-26T14:12:26.124Z,6.20
2017-11-26T14:14:53.648Z,6.10
2017-11-26T14:17:21.168Z,6.20
2017-11-26T14:19:48.682Z,6.20
2017-11-26T14:22:17.003Z,6.30
2017-11-26T14:24:44.520Z,6.30
2017-11-26T14:27:12.808Z,6.30
2017-11-26T14:29:40.336Z,6.30
2017-11-26T14:32:07.852Z,6.30
2017-11-26T14:34:35.391Z,6.30
2017-11-26T14:37:02.909Z,6.30
2017-11-26T14:39:30.439Z,6.30
2017-11-26T14:41:57.989Z,6.20
2017-11-26T14:44:25.534Z,6.20
2017-11-26T14:46:53.069Z,6.20
2017-11-26T14:49:21.392Z,6.20
2017-11-26T14:51:48.901Z,6.20
2017-11-26T14:54:17.208Z,6.20
2017-11-26T14:56:44.727Z,6.20
2017-11-26T14:59:12.257Z,6.10
2017-11-26T15:01:39.764Z,6.10
2017-11-26T15:04:08.107Z,6.10
2017-11-26T15:06:35.616Z,6.10
2017-11-26T15:09:03.158Z,6.10
2017-11-26T15:11:31.596Z,6.00
2017-11-26T15:13:59.163Z,6.00
2017-11-26T15:16:26.693Z,6.00
2017-11-26T15:18:54.220Z,6.00
2017-11-26T15:21:22.505Z,6.00
2017-11-26T15:23:50.048Z,6.00
2017-11-26T15:26:17.577Z,6.00
2017-11-26T15:28:45.137Z,6.00
2017-11-26T15:31:12.638Z,6.00
2017-11-26T15:33:40.972Z,5.90
2017-11-26T15:36:08.443Z,5.90
2017-11-26T15:38:35.968Z,5.90
2017-11-26T15:41:03.486Z,5.90
2017-11-26T15:43:31.825Z,5.80
2017-11-26T15:45:59.336Z,5.80
2017-11-26T15:48:26.865Z,5.80
2017-11-26T15:50:54.388Z,5.80
2017-11-26T15:53:21.904Z,5.80
2017-11-26T15:55:50.201Z,5.80
2017-11-26T15:58:17.722Z,5.80
2017-11-26T16:00:45.252Z,5.80
2017-11-26T16:03:12.760Z,5.80
2017-11-26T16:05:40.295Z,5.80
2017-11-26T16:08:07.816Z,5.70
2017-11-26T16:10:35.336Z,5.70
2017-11-26T16:13:03.631Z,5.70
2017-11-26T16:15:31.165Z,5.70
2017-11-26T16:17:59.461Z,5.70
2017-11-26T16:20:27.005Z,5.60
2017-11-26T16:22:55.274Z,5.60
2017-11-26T16:25:22.792Z,5.60
2017-11-26T16:27:50.305Z,5.60
2017-11-26T16:30:18.598Z,5.60
2017-11-26T16:32:46.100Z,5.60
2017-11-26T16:35:13.648Z,5.60
2017-11-26T16:37:41.159Z,5.60
2017-11-26T16:40:09.726Z,5.60
2017-11-26T16:42:37.266Z,5.60
2017-11-26T16:45:04.981Z,5.60
2017-11-26T16:47:33.286Z,5.60
2017-11-26T16:50:06.016Z,5.60
2017-11-26T16:52:33.687Z,5.60
2017-11-26T16:55:01.992Z,5.60
2017-11-26T16:57:29.513Z,5.60
2017-11-26T16:59:57.818Z,5.60
2017-11-26T17:02:25.333Z,5.60
2017-11-26T17:04:52.862Z,5.50
2017-11-26T17:07:20.379Z,5.50
2017-11-26T17:09:47.924Z,5.50
2017-11-26T17:12:15.454Z,5.50
2017-11-26T17:14:43.818Z,5.50
2017-11-26T17:17:11.343Z,5.50
2017-11-26T17:19:38.880Z,5.50
2017-11-26T17:22:06.393Z,5.50
2017-11-26T17:24:33.929Z,5.50
2017-11-26T17:27:01.462Z,5.50
2017-11-26T17:29:28.982Z,5.50
2017-11-26T17:31:56.536Z,5.50
2017-11-26T17:34:24.069Z,5.40
2017-11-26T17:36:51.604Z,5.40
2017-11-26T17:39:19.908Z,5.40
2017-11-26T17:41:47.446Z,5.40
2017-11-26T17:44:15.732Z,5.40
2017-11-26T17:46:44.169Z,5.30
2017-11-26T17:49:11.697Z,5.30
2017-11-26T17:51:39.254Z,5.30
2017-11-26T17:54:06.781Z,5.30
2017-11-26T17:56:34.337Z,5.30
2017-11-26T17:59:02.616Z,5.30
2017-11-26T18:01:31.290Z,5.30
2017-11-26T18:03:58.827Z,5.30
2017-11-26T18:06:27.384Z,5.30
2017-11-26T18:08:54.908Z,5.30
2017-11-26T18:11:23.213Z,5.30
2017-11-26T18:13:50.728Z,5.30
2017-11-26T18:16:18.303Z,5.30
2017-11-26T18:18:46.650Z,5.30
2017-11-26T18:21:14.174Z,5.30
2017-11-26T18:23:41.704Z,5.30
2017-11-26T18:26:09.982Z,5.30
2017-11-26T18:28:38.300Z,5.30
2017-11-26T18:31:05.875Z,5.30
2017-11-26T18:33:33.416Z,5.30
2017-11-26T18:36:01.008Z,5.30
2017-11-26T18:38:28.549Z,5.30
2017-11-26T18:40:56.064Z,5.30
2017-11-26T18:43:24.349Z,5.30
2017-11-26T18:45:51.869Z,5.30
2017-11-26T18:48:19.392Z,5.30
2017-11-26T18:50:46.966Z,5.30
2017-11-26T18:53:14.521Z,5.30
2017-11-26T18:55:42.057Z,5.30
2017-11-26T18:58:09.592Z,5.30
2017-11-26T19:00:37.874Z,5.20
2017-11-26T19:03:06.163Z,5.20
2017-11-26T19:05:33.683Z,5.20
2017-11-26T19:08:01.200Z,5.20
2017-11-26T19:10:29.633Z,5.20
2017-11-26T19:12:57.139Z,5.10
2017-11-26T19:15:26.593Z,5.20
2017-11-26T19:17:54.126Z,5.10
2017-11-26T19:20:21.631Z,5.10
2017-11-26T19:22:49.888Z,5.10
2017-11-26T19:25:18.377Z,5.10
2017-11-26T19:27:46.701Z,5.00
2017-11-26T19:30:14.231Z,5.00
2017-11-26T19:32:41.732Z,5.00
2017-11-26T19:35:09.258Z,5.00
2017-11-26T19:37:36.772Z,5.00
2017-11-26T19:40:04.289Z,5.00
2017-11-26T19:42:31.808Z,5.00
2017-11-26T19:44:59.336Z,5.00
2017-11-26T19:47:26.846Z,5.00
2017-11-26T19:49:54.422Z,4.90
2017-11-26T19:52:21.973Z,5.00
2017-11-26T19:54:49.443Z,4.90
2017-11-26T19:57:16.969Z,4.90
2017-11-26T19:59:45.242Z,4.90
2017-11-26T20:02:12.762Z,4.90
2017-11-26T20:04:40.301Z,4.90
2017-11-26T20:07:07.823Z,4.90
2017-11-26T20:09:35.335Z,4.90
2017-11-26T20:12:02.902Z,4.90
2017-11-26T20:14:31.419Z,4.90
2017-11-26T20:16:58.985Z,4.80
2017-11-26T20:19:26.565Z,4.80
2017-11-26T20:21:54.110Z,4.80
2017-11-26T20:24:22.477Z,4.80
2017-11-26T20:26:50.778Z,4.80
2017-11-26T20:29:19.068Z,4.80
2017-11-26T20:31:46.583Z,4.80
2017-11-26T20:34:14.146Z,4.80
2017-11-26T20:36:41.675Z,4.80
2017-11-26T20:39:12.436Z,4.80
2017-11-26T20:41:39.970Z,4.80
2017-11-26T20:44:07.472Z,4.80
2017-11-26T20:46:35.761Z,4.70
2017-11-26T20:49:04.073Z,4.70
2017-11-26T20:51:31.613Z,4.70
2017-11-26T20:53:59.128Z,4.70
2017-11-26T20:56:26.652Z,4.70
2017-11-26T20:58:54.159Z,4.70
2017-11-26T21:01:23.558Z,4.70
2017-11-26T21:03:51.828Z,4.70
2017-11-26T21:06:19.375Z,4.70
2017-11-26T21:08:46.887Z,4.70
2017-11-26T21:11:14.417Z,4.70
2017-11-26T21:13:42.735Z,4.70
2017-11-26T21:16:10.265Z,4.70
2017-11-26T21:18:38.528Z,4.60
2017-11-26T21:21:06.043Z,4.60
2017-11-26T21:23:33.544Z,4.70
2017-11-26T21:26:01.058Z,4.60
2017-11-26T21:28:28.567Z,4.60
2017-11-26T21:30:56.864Z,4.60
2017-11-26T21:33:24.367Z,4.70
2017-11-26T21:35:51.876Z,4.70
2017-11-26T21:38:20.164Z,4.70
2017-11-26T21:40:47.661Z,4.60
2017-11-26T21:43:15.191Z,4.70
2017-11-26T21:45:42.764Z,4.70
2017-11-26T21:48:10.305Z,4.70
2017-11-26T21:50:37.804Z,4.70
2017-11-26T21:53:05.355Z,4.70
2017-11-26T21:55:32.877Z,4.70
2017-11-26T21:58:00.387Z,4.70
2017-11-26T22:00:27.881Z,4.70
2017-11-26T22:02:55.403Z,4.70
2017-11-26T22:05:22.904Z,4.70
2017-11-26T22:07:51.190Z,4.70
2017-11-26T22:10:18.698Z,4.70
2017-11-26T22:12:46.217Z,4.80
2017-11-26T22:15:13.745Z,4.80
2017-11-26T22:17:41.257Z,4.80
2017-11-26T22:20:08.761Z,4.80
2017-11-26T22:22:36.285Z,4.80
2017-11-26T22:25:03.775Z,4.80
2017-11-26T22:27:31.294Z,4.80
2017-11-26T22:29:58.797Z,4.80
2017-11-26T22:32:27.093Z,4.80
2017-11-26T22:34:55.376Z,4.80
2017-11-26T22:37:23.668Z,4.80
2017-11-26T22:39:51.230Z,4.80
2017-11-26T22:42:18.745Z,4.80
2017-11-26T22:44:46.270Z,4.80
2017-11-26T22:47:13.773Z,4.80
2017-11-26T22:49:42.060Z,4.80
2017-11-26T22:52:09.577Z,4.80
2017-11-26T22:54:37.109Z,4.80
2017-11-26T22:57:04.632Z,4.80
2017-11-26T22:59:32.917Z,4.80
2017-11-26T23:02:00.441Z,4.80
2017-11-26T23:04:27.961Z,4.80
2017-11-26T23:06:55.456Z,4.80
2017-11-26T23:09:22.971Z,4.80
2017-11-26T23:11:50.496Z,4.80
2017-11-26T23:14:18.776Z,4.80
2017-11-26T23:16:47.037Z,4.80
2017-11-26T23:19:14.580Z,4.80
2017-11-26T23:21:42.085Z,4.80
2017-11-26T23:24:10.360Z,4.80
2017-11-26T23:26:37.879Z,4.80
2017-11-26T23:29:05.381Z,4.80
2017-11-26T23:31:33.661Z,4.80
2017-11-26T23:34:01.161Z,4.80
2017-11-26T23:36:28.675Z,4.80
2017-11-26T23:38:56.176Z,4.80
2017-11-26T23:41:23.705Z,4.80
2017-11-26T23:43:51.228Z,4.80
2017-11-26T23:46:18.739Z,4.80
2017-11-26T23:48:46.245Z,4.80
2017-11-26T23:51:13.761Z,4.80
2017-11-26T23:53:41.258Z,4.80
2017-11-26T23:56:08.817Z,4.80
2017-11-26T23:58:36.316Z,4.80
